Westphalia, Iowa
Current Conditions -  °F | °C
As of 9:55 AM on Friday 24 Oct 2014 (Local Time) from KHNR Reporting Station
Haze Haze  
Wind Chill: 61°   Ceiling: 400
Heat Index: 61°   Visibility: 2mi
Dew Point: 61°   Wind: 12mph
Humidity: 100%   Direction: 210°SSW
Pressure: 29.97"   Gusts: 21mph
Location:  41.72°N, 95.39°W
Report Text: KHNR 241455Z AUTO 21010G18KT 2SM BR OVC004 16/16 A2997 RMK AO2
Loading
Personal Weather Stations






























Interactive Weather Map
Tropical Storm Tracking
New forecast layout! Learn more

10-Day Weather Forecast

Advertisements
Track Severe Weather on mobile